sensor_id;sensor_type;location;lat;lon;timestamp;temperature;humidity
54898;DHT22;40800;52.704;6.398;2023-05-31T00:01:34;10.60;1.00
54898;DHT22;40800;52.704;6.398;2023-05-31T00:04:00;10.40;1.00
54898;DHT22;40800;52.704;6.398;2023-05-31T00:06:26;10.50;1.00
54898;DHT22;40800;52.704;6.398;2023-05-31T00:08:51;10.50;18.50
54898;DHT22;40800;52.704;6.398;2023-05-31T00:11:17;10.40;58.20
54898;DHT22;40800;52.704;6.398;2023-05-31T00:13:42;10.30;99.90
54898;DHT22;40800;52.704;6.398;2023-05-31T00:16:10;10.20;99.90
54898;DHT22;40800;52.704;6.398;2023-05-31T00:18:36;10.20;99.90
54898;DHT22;40800;52.704;6.398;2023-05-31T00:21:02;10.10;99.90
54898;DHT22;40800;52.704;6.398;2023-05-31T00:23:27;10.10;99.90
54898;DHT22;40800;52.704;6.398;2023-05-31T00:25:53;10.00;99.90
54898;DHT22;40800;52.704;6.398;2023-05-31T00:28:18;10.00;1.00
54898;DHT22;40800;52.704;6.398;2023-05-31T00:30:44;9.90;1.00
54898;DHT22;40800;52.704;6.398;2023-05-31T00:33:11;10.00;1.00
54898;DHT22;40800;52.704;6.398;2023-05-31T00:35:37;10.00;1.00
54898;DHT22;40800;52.704;6.398;2023-05-31T00:38:05;9.90;94.30
54898;DHT22;40800;52.704;6.398;2023-05-31T00:40:31;9.90;99.90
54898;DHT22;40800;52.704;6.398;2023-05-31T00:42:57;9.90;99.90
54898;DHT22;40800;52.704;6.398;2023-05-31T00:45:23;9.90;99.90
54898;DHT22;40800;52.704;6.398;2023-05-31T00:47:49;9.90;99.90
54898;DHT22;40800;52.704;6.398;2023-05-31T00:50:15;9.80;99.90
54898;DHT22;40800;52.704;6.398;2023-05-31T00:52:43;9.90;99.90
54898;DHT22;40800;52.704;6.398;2023-05-31T00:55:10;9.90;99.90
54898;DHT22;40800;52.704;6.398;2023-05-31T00:57:36;9.90;1.00
54898;DHT22;40800;52.704;6.398;2023-05-31T01:00:02;9.80;1.00
54898;DHT22;40800;52.704;6.398;2023-05-31T01:02:31;10.00;1.00
54898;DHT22;40800;52.704;6.398;2023-05-31T01:04:57;10.10;25.20
54898;DHT22;40800;52.704;6.398;2023-05-31T01:07:23;10.10;22.50
54898;DHT22;40800;52.704;6.398;2023-05-31T01:09:50;9.90;42.00
54898;DHT22;40800;52.704;6.398;2023-05-31T01:15:19;10.10;69.20
54898;DHT22;40800;52.704;6.398;2023-05-31T01:18:08;10.00;52.00
54898;DHT22;40800;52.704;6.398;2023-05-31T01:20:38;10.10;42.50
54898;DHT22;40800;52.704;6.398;2023-05-31T01:23:32;10.00;75.50
54898;DHT22;40800;52.704;6.398;2023-05-31T01:28:43;10.10;94.10
54898;DHT22;40800;52.704;6.398;2023-05-31T01:31:14;9.90;70.00
54898;DHT22;40800;52.704;6.398;2023-05-31T01:33:40;9.90;99.90
54898;DHT22;40800;52.704;6.398;2023-05-31T01:36:06;10.00;98.70
54898;DHT22;40800;52.704;6.398;2023-05-31T01:38:31;10.00;99.90
54898;DHT22;40800;52.704;6.398;2023-05-31T01:40:57;10.00;99.90
54898;DHT22;40800;52.704;6.398;2023-05-31T01:43:25;10.10;99.90
54898;DHT22;40800;52.704;6.398;2023-05-31T01:45:53;9.90;99.90
54898;DHT22;40800;52.704;6.398;2023-05-31T01:48:19;10.00;99.90
54898;DHT22;40800;52.704;6.398;2023-05-31T01:50:45;9.90;99.90
54898;DHT22;40800;52.704;6.398;2023-05-31T01:53:11;9.90;99.90
54898;DHT22;40800;52.704;6.398;2023-05-31T01:55:37;9.90;99.90
54898;DHT22;40800;52.704;6.398;2023-05-31T01:58:04;9.90;99.90
54898;DHT22;40800;52.704;6.398;2023-05-31T02:00:30;9.80;99.90
54898;DHT22;40800;52.704;6.398;2023-05-31T02:02:56;9.80;99.90
54898;DHT22;40800;52.704;6.398;2023-05-31T02:05:23;9.80;99.90
54898;DHT22;40800;52.704;6.398;2023-05-31T02:07:48;9.70;99.90
54898;DHT22;40800;52.704;6.398;2023-05-31T02:10:14;9.70;99.90
54898;DHT22;40800;52.704;6.398;2023-05-31T02:12:40;9.60;99.90
54898;DHT22;40800;52.704;6.398;2023-05-31T02:15:06;9.60;99.90
54898;DHT22;40800;52.704;6.398;2023-05-31T02:17:40;9.60;99.90
54898;DHT22;40800;52.704;6.398;2023-05-31T02:20:09;9.70;99.90
54898;DHT22;40800;52.704;6.398;2023-05-31T02:22:36;9.50;99.90
54898;DHT22;40800;52.704;6.398;2023-05-31T02:25:02;9.40;99.90
54898;DHT22;40800;52.704;6.398;2023-05-31T02:27:29;9.60;99.90
54898;DHT22;40800;52.704;6.398;2023-05-31T02:29:54;9.40;99.90
54898;DHT22;40800;52.704;6.398;2023-05-31T02:32:20;9.50;99.90
54898;DHT22;40800;52.704;6.398;2023-05-31T02:34:46;9.40;99.90
54898;DHT22;40800;52.704;6.398;2023-05-31T02:37:11;9.30;99.90
54898;DHT22;40800;52.704;6.398;2023-05-31T02:39:37;9.40;99.90
54898;DHT22;40800;52.704;6.398;2023-05-31T02:42:03;9.30;99.90
54898;DHT22;40800;52.704;6.398;2023-05-31T02:44:28;9.40;99.90
54898;DHT22;40800;52.704;6.398;2023-05-31T02:46:54;9.30;99.90
54898;DHT22;40800;52.704;6.398;2023-05-31T02:49:19;9.30;99.90
54898;DHT22;40800;52.704;6.398;2023-05-31T02:51:45;9.40;99.90
54898;DHT22;40800;52.704;6.398;2023-05-31T02:54:11;9.30;99.90
54898;DHT22;40800;52.704;6.398;2023-05-31T02:56:36;9.20;99.90
54898;DHT22;40800;52.704;6.398;2023-05-31T02:59:02;9.30;99.90
54898;DHT22;40800;52.704;6.398;2023-05-31T03:01:28;9.30;99.90
54898;DHT22;40800;52.704;6.398;2023-05-31T03:03:53;9.00;99.90
54898;DHT22;40800;52.704;6.398;2023-05-31T03:06:19;9.00;99.90
54898;DHT22;40800;52.704;6.398;2023-05-31T03:08:45;9.00;99.90
54898;DHT22;40800;52.704;6.398;2023-05-31T03:11:11;9.10;99.90
54898;DHT22;40800;52.704;6.398;2023-05-31T03:13:36;9.10;99.90
54898;DHT22;40800;52.704;6.398;2023-05-31T03:16:02;9.10;99.90
54898;DHT22;40800;52.704;6.398;2023-05-31T03:18:27;8.90;99.90
54898;DHT22;40800;52.704;6.398;2023-05-31T03:20:53;9.00;99.90
54898;DHT22;40800;52.704;6.398;2023-05-31T03:23:18;9.10;99.90
54898;DHT22;40800;52.704;6.398;2023-05-31T03:25:44;9.00;99.90
54898;DHT22;40800;52.704;6.398;2023-05-31T03:28:09;9.10;99.90
54898;DHT22;40800;52.704;6.398;2023-05-31T03:30:35;9.00;99.90
54898;DHT22;40800;52.704;6.398;2023-05-31T03:33:01;9.10;99.90
54898;DHT22;40800;52.704;6.398;2023-05-31T03:35:28;9.20;99.90
54898;DHT22;40800;52.704;6.398;2023-05-31T03:37:53;9.30;99.90
54898;DHT22;40800;52.704;6.398;2023-05-31T03:40:19;9.10;99.90
54898;DHT22;40800;52.704;6.398;2023-05-31T03:42:45;9.30;99.90
54898;DHT22;40800;52.704;6.398;2023-05-31T03:45:10;9.30;99.90
54898;DHT22;40800;52.704;6.398;2023-05-31T03:47:36;9.10;99.90
54898;DHT22;40800;52.704;6.398;2023-05-31T03:50:04;9.10;99.90
54898;DHT22;40800;52.704;6.398;2023-05-31T03:52:30;9.10;99.90
54898;DHT22;40800;52.704;6.398;2023-05-31T03:54:55;9.10;99.90
54898;DHT22;40800;52.704;6.398;2023-05-31T03:57:21;9.10;99.90
54898;DHT22;40800;52.704;6.398;2023-05-31T03:59:47;9.40;99.90
54898;DHT22;40800;52.704;6.398;2023-05-31T04:02:12;9.40;99.90
54898;DHT22;40800;52.704;6.398;2023-05-31T04:04:38;9.30;99.90
54898;DHT22;40800;52.704;6.398;2023-05-31T04:07:03;9.40;99.90
54898;DHT22;40800;52.704;6.398;2023-05-31T04:09:29;9.40;99.90
54898;DHT22;40800;52.704;6.398;2023-05-31T04:11:55;9.20;99.90
54898;DHT22;40800;52.704;6.398;2023-05-31T04:14:20;9.40;99.90
54898;DHT22;40800;52.704;6.398;2023-05-31T04:16:46;9.50;99.90
54898;DHT22;40800;52.704;6.398;2023-05-31T04:19:12;9.20;99.90
54898;DHT22;40800;52.704;6.398;2023-05-31T04:21:37;9.60;99.90
54898;DHT22;40800;52.704;6.398;2023-05-31T04:24:03;9.60;99.90
54898;DHT22;40800;52.704;6.398;2023-05-31T04:26:29;9.40;99.90
54898;DHT22;40800;52.704;6.398;2023-05-31T04:28:54;9.40;99.90
54898;DHT22;40800;52.704;6.398;2023-05-31T04:31:21;9.70;99.90
54898;DHT22;40800;52.704;6.398;2023-05-31T04:33:52;9.40;99.90
54898;DHT22;40800;52.704;6.398;2023-05-31T04:36:20;9.60;99.90
54898;DHT22;40800;52.704;6.398;2023-05-31T04:38:45;9.40;99.90
54898;DHT22;40800;52.704;6.398;2023-05-31T04:41:13;9.80;99.90
54898;DHT22;40800;52.704;6.398;2023-05-31T04:43:39;9.80;99.90
54898;DHT22;40800;52.704;6.398;2023-05-31T04:46:05;9.70;99.90
54898;DHT22;40800;52.704;6.398;2023-05-31T04:48:31;9.60;99.90
54898;DHT22;40800;52.704;6.398;2023-05-31T04:50:57;9.70;99.90
54898;DHT22;40800;52.704;6.398;2023-05-31T04:53:24;9.70;99.90
54898;DHT22;40800;52.704;6.398;2023-05-31T04:55:50;9.80;99.90
54898;DHT22;40800;52.704;6.398;2023-05-31T04:58:17;10.10;99.90
54898;DHT22;40800;52.704;6.398;2023-05-31T05:00:42;10.30;99.90
54898;DHT22;40800;52.704;6.398;2023-05-31T05:03:09;10.40;99.90
54898;DHT22;40800;52.704;6.398;2023-05-31T05:05:35;10.10;99.90
54898;DHT22;40800;52.704;6.398;2023-05-31T05:08:01;10.40;99.90
54898;DHT22;40800;52.704;6.398;2023-05-31T05:10:27;10.50;99.90
54898;DHT22;40800;52.704;6.398;2023-05-31T05:12:53;10.60;99.90
54898;DHT22;40800;52.704;6.398;2023-05-31T05:15:18;10.40;99.90
54898;DHT22;40800;52.704;6.398;2023-05-31T05:17:44;10.80;99.90
54898;DHT22;40800;52.704;6.398;2023-05-31T05:20:11;10.90;99.90
54898;DHT22;40800;52.704;6.398;2023-05-31T05:22:37;10.60;99.90
54898;DHT22;40800;52.704;6.398;2023-05-31T05:25:03;11.00;99.90
54898;DHT22;40800;52.704;6.398;2023-05-31T05:27:28;10.70;99.90
54898;DHT22;40800;52.704;6.398;2023-05-31T05:29:54;11.10;99.90
54898;DHT22;40800;52.704;6.398;2023-05-31T05:32:19;11.40;99.90
54898;DHT22;40800;52.704;6.398;2023-05-31T05:34:45;10.90;99.90
54898;DHT22;40800;52.704;6.398;2023-05-31T05:37:11;11.40;99.90
54898;DHT22;40800;52.704;6.398;2023-05-31T05:39:37;11.40;99.90
54898;DHT22;40800;52.704;6.398;2023-05-31T05:42:02;11.50;99.90
54898;DHT22;40800;52.704;6.398;2023-05-31T05:44:29;11.40;99.90
54898;DHT22;40800;52.704;6.398;2023-05-31T05:46:54;11.70;99.90
54898;DHT22;40800;52.704;6.398;2023-05-31T05:49:21;11.80;99.90
54898;DHT22;40800;52.704;6.398;2023-05-31T05:51:47;11.90;99.90
54898;DHT22;40800;52.704;6.398;2023-05-31T05:54:13;11.60;99.90
54898;DHT22;40800;52.704;6.398;2023-05-31T05:56:38;12.00;99.90
54898;DHT22;40800;52.704;6.398;2023-05-31T05:59:04;11.90;99.90
54898;DHT22;40800;52.704;6.398;2023-05-31T06:01:30;12.20;99.90
54898;DHT22;40800;52.704;6.398;2023-05-31T06:03:56;12.20;99.90
54898;DHT22;40800;52.704;6.398;2023-05-31T06:06:21;12.40;99.90
54898;DHT22;40800;52.704;6.398;2023-05-31T06:08:47;12.20;99.90
54898;DHT22;40800;52.704;6.398;2023-05-31T06:11:13;12.50;99.90
54898;DHT22;40800;52.704;6.398;2023-05-31T06:13:42;12.60;99.90
54898;DHT22;40800;52.704;6.398;2023-05-31T06:16:08;12.50;99.90
54898;DHT22;40800;52.704;6.398;2023-05-31T06:18:34;12.90;99.90
54898;DHT22;40800;52.704;6.398;2023-05-31T06:21:00;12.70;99.90
54898;DHT22;40800;52.704;6.398;2023-05-31T06:23:26;12.80;99.90
54898;DHT22;40800;52.704;6.398;2023-05-31T06:25:52;12.90;99.90
54898;DHT22;40800;52.704;6.398;2023-05-31T06:28:18;13.00;99.90
54898;DHT22;40800;52.704;6.398;2023-05-31T06:30:43;13.10;99.90
54898;DHT22;40800;52.704;6.398;2023-05-31T06:33:09;13.30;99.90
54898;DHT22;40800;52.704;6.398;2023-05-31T06:35:35;13.40;99.90
54898;DHT22;40800;52.704;6.398;2023-05-31T06:38:00;13.30;99.90
54898;DHT22;40800;52.704;6.398;2023-05-31T06:40:29;13.60;99.90
54898;DHT22;40800;52.704;6.398;2023-05-31T06:42:55;13.80;99.90
54898;DHT22;40800;52.704;6.398;2023-05-31T06:45:20;13.80;99.90
54898;DHT22;40800;52.704;6.398;2023-05-31T06:47:46;14.30;99.90
54898;DHT22;40800;52.704;6.398;2023-05-31T06:50:11;14.20;99.90
54898;DHT22;40800;52.704;6.398;2023-05-31T06:52:40;14.30;99.90
54898;DHT22;40800;52.704;6.398;2023-05-31T06:55:06;14.30;99.90
54898;DHT22;40800;52.704;6.398;2023-05-31T06:57:31;14.50;99.90
54898;DHT22;40800;52.704;6.398;2023-05-31T06:59:57;14.70;99.90
54898;DHT22;40800;52.704;6.398;2023-05-31T07:02:23;14.70;99.90
54898;DHT22;40800;52.704;6.398;2023-05-31T07:04:49;14.80;99.90
54898;DHT22;40800;52.704;6.398;2023-05-31T07:07:15;14.90;99.90
54898;DHT22;40800;52.704;6.398;2023-05-31T07:09:40;15.00;99.90
54898;DHT22;40800;52.704;6.398;2023-05-31T07:12:06;15.00;99.90
54898;DHT22;40800;52.704;6.398;2023-05-31T07:14:32;15.20;99.90
54898;DHT22;40800;52.704;6.398;2023-05-31T07:16:58;15.30;99.90
54898;DHT22;40800;52.704;6.398;2023-05-31T07:19:23;15.30;99.90
54898;DHT22;40800;52.704;6.398;2023-05-31T07:21:49;15.70;99.90
54898;DHT22;40800;52.704;6.398;2023-05-31T07:24:14;15.80;99.90
54898;DHT22;40800;52.704;6.398;2023-05-31T07:26:40;15.80;99.90
54898;DHT22;40800;52.704;6.398;2023-05-31T07:29:06;15.90;99.90
54898;DHT22;40800;52.704;6.398;2023-05-31T07:31:31;16.00;99.90
54898;DHT22;40800;52.704;6.398;2023-05-31T07:33:57;16.10;99.90
54898;DHT22;40800;52.704;6.398;2023-05-31T07:36:22;16.40;99.90
54898;DHT22;40800;52.704;6.398;2023-05-31T07:38:52;16.50;56.40
54898;DHT22;40800;52.704;6.398;2023-05-31T07:41:18;16.70;1.00
54898;DHT22;40800;52.704;6.398;2023-05-31T07:43:44;17.00;99.90
54898;DHT22;40800;52.704;6.398;2023-05-31T07:46:11;17.10;99.90
54898;DHT22;40800;52.704;6.398;2023-05-31T07:48:36;17.40;1.00
54898;DHT22;40800;52.704;6.398;2023-05-31T07:51:02;17.50;99.90
54898;DHT22;40800;52.704;6.398;2023-05-31T07:53:28;17.60;28.70
54898;DHT22;40800;52.704;6.398;2023-05-31T07:55:53;17.80;1.00
54898;DHT22;40800;52.704;6.398;2023-05-31T07:58:19;17.90;1.00
54898;DHT22;40800;52.704;6.398;2023-05-31T08:00:45;17.90;99.90
54898;DHT22;40800;52.704;6.398;2023-05-31T08:03:10;18.00;99.90
54898;DHT22;40800;52.704;6.398;2023-05-31T08:05:36;18.10;1.00
54898;DHT22;40800;52.704;6.398;2023-05-31T08:08:01;18.30;99.90
54898;DHT22;40800;52.704;6.398;2023-05-31T08:10:28;18.50;1.00
54898;DHT22;40800;52.704;6.398;2023-05-31T08:12:55;18.60;1.00
54898;DHT22;40800;52.704;6.398;2023-05-31T08:15:21;18.70;1.00
54898;DHT22;40800;52.704;6.398;2023-05-31T08:17:46;18.90;1.00
54898;DHT22;40800;52.704;6.398;2023-05-31T08:20:13;19.10;1.00
54898;DHT22;40800;52.704;6.398;2023-05-31T08:22:44;19.30;99.90
54898;DHT22;40800;52.704;6.398;2023-05-31T08:25:11;19.50;99.90
54898;DHT22;40800;52.704;6.398;2023-05-31T08:27:40;19.70;1.00
54898;DHT22;40800;52.704;6.398;2023-05-31T08:30:09;20.00;1.00
54898;DHT22;40800;52.704;6.398;2023-05-31T08:32:36;20.20;99.90
54898;DHT22;40800;52.704;6.398;2023-05-31T08:35:01;20.40;51.00
54898;DHT22;40800;52.704;6.398;2023-05-31T08:37:27;20.50;32.50
54898;DHT22;40800;52.704;6.398;2023-05-31T08:39:53;20.70;49.70
54898;DHT22;40800;52.704;6.398;2023-05-31T08:42:25;20.80;1.00
54898;DHT22;40800;52.704;6.398;2023-05-31T08:44:53;21.00;99.90
54898;DHT22;40800;52.704;6.398;2023-05-31T08:47:32;21.00;99.90
54898;DHT22;40800;52.704;6.398;2023-05-31T08:50:00;21.20;99.90
54898;DHT22;40800;52.704;6.398;2023-05-31T08:52:26;21.40;99.90
54898;DHT22;40800;52.704;6.398;2023-05-31T08:54:52;21.70;99.90
54898;DHT22;40800;52.704;6.398;2023-05-31T08:57:19;21.70;99.90
54898;DHT22;40800;52.704;6.398;2023-05-31T08:59:45;21.80;99.00
54898;DHT22;40800;52.704;6.398;2023-05-31T09:02:12;22.00;45.40
54898;DHT22;40800;52.704;6.398;2023-05-31T09:04:40;22.10;41.60
54898;DHT22;40800;52.704;6.398;2023-05-31T09:07:06;22.40;1.00
54898;DHT22;40800;52.704;6.398;2023-05-31T09:09:31;22.50;1.00
54898;DHT22;40800;52.704;6.398;2023-05-31T09:11:57;22.60;99.90
54898;DHT22;40800;52.704;6.398;2023-05-31T09:14:26;22.60;1.00
54898;DHT22;40800;52.704;6.398;2023-05-31T09:16:51;22.70;1.00
54898;DHT22;40800;52.704;6.398;2023-05-31T09:19:17;22.90;99.90
54898;DHT22;40800;52.704;6.398;2023-05-31T09:21:44;23.10;99.90
54898;DHT22;40800;52.704;6.398;2023-05-31T09:24:10;23.30;99.90
54898;DHT22;40800;52.704;6.398;2023-05-31T09:26:51;23.40;99.90
54898;DHT22;40800;52.704;6.398;2023-05-31T09:29:17;23.60;99.90
54898;DHT22;40800;52.704;6.398;2023-05-31T09:31:44;23.80;99.90
54898;DHT22;40800;52.704;6.398;2023-05-31T09:34:26;24.10;99.90
54898;DHT22;40800;52.704;6.398;2023-05-31T09:36:57;24.30;99.90
54898;DHT22;40800;52.704;6.398;2023-05-31T09:39:23;24.40;99.90
54898;DHT22;40800;52.704;6.398;2023-05-31T09:41:50;24.60;99.90
54898;DHT22;40800;52.704;6.398;2023-05-31T09:44:16;24.70;99.90
54898;DHT22;40800;52.704;6.398;2023-05-31T09:46:41;24.80;99.90
54898;DHT22;40800;52.704;6.398;2023-05-31T09:49:07;24.80;99.90
54898;DHT22;40800;52.704;6.398;2023-05-31T09:51:35;24.90;99.90
54898;DHT22;40800;52.704;6.398;2023-05-31T09:54:15;25.00;99.90
54898;DHT22;40800;52.704;6.398;2023-05-31T09:56:43;25.30;99.90
54898;DHT22;40800;52.704;6.398;2023-05-31T09:59:09;25.40;99.90
54898;DHT22;40800;52.704;6.398;2023-05-31T10:01:35;25.60;99.90
54898;DHT22;40800;52.704;6.398;2023-05-31T10:04:02;25.80;92.40
54898;DHT22;40800;52.704;6.398;2023-05-31T10:06:32;26.00;90.70
54898;DHT22;40800;52.704;6.398;2023-05-31T10:09:04;26.20;90.80
54898;DHT22;40800;52.704;6.398;2023-05-31T10:11:37;26.50;79.90
54898;DHT22;40800;52.704;6.398;2023-05-31T10:14:20;26.70;88.50
54898;DHT22;40800;52.704;6.398;2023-05-31T10:16:49;27.00;57.50
54898;DHT22;40800;52.704;6.398;2023-05-31T10:19:21;27.00;37.40
54898;DHT22;40800;52.704;6.398;2023-05-31T10:21:50;27.10;36.40
54898;DHT22;40800;52.704;6.398;2023-05-31T10:24:40;27.10;1.00
54898;DHT22;40800;52.704;6.398;2023-05-31T10:27:17;27.10;1.00
54898;DHT22;40800;52.704;6.398;2023-05-31T10:29:51;26.90;1.00
54898;DHT22;40800;52.704;6.398;2023-05-31T10:32:20;26.90;1.00
54898;DHT22;40800;52.704;6.398;2023-05-31T10:34:47;26.80;1.00
54898;DHT22;40800;52.704;6.398;2023-05-31T10:37:14;27.00;1.00
54898;DHT22;40800;52.704;6.398;2023-05-31T10:45:15;27.80;1.00
54898;DHT22;40800;52.704;6.398;2023-05-31T10:47:46;28.00;1.00
54898;DHT22;40800;52.704;6.398;2023-05-31T10:50:19;28.20;1.00
54898;DHT22;40800;52.704;6.398;2023-05-31T10:52:52;28.30;1.00
54898;DHT22;40800;52.704;6.398;2023-05-31T10:55:24;28.40;1.00
54898;DHT22;40800;52.704;6.398;2023-05-31T10:57:52;28.40;1.00
54898;DHT22;40800;52.704;6.398;2023-05-31T11:00:19;28.50;1.00
54898;DHT22;40800;52.704;6.398;2023-05-31T11:02:48;28.40;1.00
54898;DHT22;40800;52.704;6.398;2023-05-31T11:07:46;28.50;1.00
54898;DHT22;40800;52.704;6.398;2023-05-31T11:10:30;28.60;1.00
54898;DHT22;40800;52.704;6.398;2023-05-31T11:13:02;28.90;1.00
54898;DHT22;40800;52.704;6.398;2023-05-31T11:15:41;29.10;1.00
54898;DHT22;40800;52.704;6.398;2023-05-31T11:18:09;29.20;1.00
54898;DHT22;40800;52.704;6.398;2023-05-31T11:20:35;29.30;99.90
54898;DHT22;40800;52.704;6.398;2023-05-31T11:26:07;29.40;99.90
54898;DHT22;40800;52.704;6.398;2023-05-31T11:28:57;29.70;99.90
54898;DHT22;40800;52.704;6.398;2023-05-31T11:31:58;29.90;99.90
54898;DHT22;40800;52.704;6.398;2023-05-31T11:34:26;30.00;99.90
54898;DHT22;40800;52.704;6.398;2023-05-31T11:36:56;30.00;99.90
54898;DHT22;40800;52.704;6.398;2023-05-31T11:39:23;29.90;99.90
54898;DHT22;40800;52.704;6.398;2023-05-31T11:41:49;30.00;99.90
54898;DHT22;40800;52.704;6.398;2023-05-31T11:44:30;29.80;99.90
54898;DHT22;40800;52.704;6.398;2023-05-31T11:47:05;29.20;99.90
54898;DHT22;40800;52.704;6.398;2023-05-31T11:49:33;29.60;99.90
54898;DHT22;40800;52.704;6.398;2023-05-31T11:52:00;29.90;99.90
54898;DHT22;40800;52.704;6.398;2023-05-31T11:54:27;30.20;99.90
54898;DHT22;40800;52.704;6.398;2023-05-31T11:57:00;30.40;99.90
54898;DHT22;40800;52.704;6.398;2023-05-31T11:59:26;30.70;99.90
54898;DHT22;40800;52.704;6.398;2023-05-31T12:01:56;30.80;99.90
54898;DHT22;40800;52.704;6.398;2023-05-31T12:04:31;30.90;99.90
54898;DHT22;40800;52.704;6.398;2023-05-31T12:06:57;31.10;99.90
54898;DHT22;40800;52.704;6.398;2023-05-31T12:09:27;31.10;99.90
54898;DHT22;40800;52.704;6.398;2023-05-31T12:11:54;31.20;99.90
54898;DHT22;40800;52.704;6.398;2023-05-31T12:14:20;31.50;99.90
54898;DHT22;40800;52.704;6.398;2023-05-31T12:16:47;31.50;99.90
54898;DHT22;40800;52.704;6.398;2023-05-31T12:19:15;31.60;99.90
54898;DHT22;40800;52.704;6.398;2023-05-31T12:21:42;31.70;99.90
54898;DHT22;40800;52.704;6.398;2023-05-31T12:24:17;32.00;99.90
54898;DHT22;40800;52.704;6.398;2023-05-31T12:26:44;32.30;99.90
54898;DHT22;40800;52.704;6.398;2023-05-31T12:29:13;32.30;99.90
54898;DHT22;40800;52.704;6.398;2023-05-31T12:31:39;32.30;99.90
54898;DHT22;40800;52.704;6.398;2023-05-31T12:39:10;32.50;99.90
54898;DHT22;40800;52.704;6.398;2023-05-31T12:41:37;32.40;99.90
54898;DHT22;40800;52.704;6.398;2023-05-31T12:44:03;32.30;99.90
54898;DHT22;40800;52.704;6.398;2023-05-31T12:46:39;32.00;99.90
54898;DHT22;40800;52.704;6.398;2023-05-31T12:49:21;31.90;99.90
54898;DHT22;40800;52.704;6.398;2023-05-31T12:51:57;31.90;99.90
54898;DHT22;40800;52.704;6.398;2023-05-31T12:54:25;31.90;99.90
54898;DHT22;40800;52.704;6.398;2023-05-31T12:56:51;31.90;99.90
54898;DHT22;40800;52.704;6.398;2023-05-31T12:59:16;32.00;99.90
54898;DHT22;40800;52.704;6.398;2023-05-31T13:01:43;32.40;99.90
54898;DHT22;40800;52.704;6.398;2023-05-31T13:04:09;32.70;99.90
54898;DHT22;40800;52.704;6.398;2023-05-31T13:06:35;33.10;99.90
54898;DHT22;40800;52.704;6.398;2023-05-31T13:09:02;33.20;99.90
54898;DHT22;40800;52.704;6.398;2023-05-31T13:11:32;33.30;99.90
54898;DHT22;40800;52.704;6.398;2023-05-31T13:13:58;33.30;99.90
54898;DHT22;40800;52.704;6.398;2023-05-31T13:16:23;33.10;99.90
54898;DHT22;40800;52.704;6.398;2023-05-31T13:18:49;32.90;99.90
54898;DHT22;40800;52.704;6.398;2023-05-31T13:21:14;32.70;99.90
54898;DHT22;40800;52.704;6.398;2023-05-31T13:23:40;32.60;99.90
54898;DHT22;40800;52.704;6.398;2023-05-31T13:26:06;32.80;99.90
54898;DHT22;40800;52.704;6.398;2023-05-31T13:28:32;32.70;99.90
54898;DHT22;40800;52.704;6.398;2023-05-31T13:30:57;32.80;99.90
54898;DHT22;40800;52.704;6.398;2023-05-31T13:33:23;32.60;99.90
54898;DHT22;40800;52.704;6.398;2023-05-31T13:35:52;32.70;99.90
54898;DHT22;40800;52.704;6.398;2023-05-31T13:38:17;32.80;99.90
54898;DHT22;40800;52.704;6.398;2023-05-31T13:40:43;32.80;99.90
54898;DHT22;40800;52.704;6.398;2023-05-31T13:43:09;32.90;99.90
54898;DHT22;40800;52.704;6.398;2023-05-31T13:45:34;33.10;99.90
54898;DHT22;40800;52.704;6.398;2023-05-31T13:48:00;33.40;99.90
54898;DHT22;40800;52.704;6.398;2023-05-31T13:50:26;33.60;99.90
54898;DHT22;40800;52.704;6.398;2023-05-31T13:52:51;33.70;99.90
54898;DHT22;40800;52.704;6.398;2023-05-31T13:55:17;33.60;99.90
54898;DHT22;40800;52.704;6.398;2023-05-31T13:57:43;33.40;99.90
54898;DHT22;40800;52.704;6.398;2023-05-31T14:00:08;33.40;99.90
54898;DHT22;40800;52.704;6.398;2023-05-31T14:02:36;33.30;99.90
54898;DHT22;40800;52.704;6.398;2023-05-31T14:05:05;32.90;99.90
54898;DHT22;40800;52.704;6.398;2023-05-31T14:07:31;32.30;99.90
54898;DHT22;40800;52.704;6.398;2023-05-31T14:09:57;32.10;99.90
54898;DHT22;40800;52.704;6.398;2023-05-31T14:12:22;31.90;99.90
54898;DHT22;40800;52.704;6.398;2023-05-31T14:14:48;31.90;99.90
54898;DHT22;40800;52.704;6.398;2023-05-31T14:17:14;31.60;99.90
54898;DHT22;40800;52.704;6.398;2023-05-31T14:19:40;31.20;99.90
54898;DHT22;40800;52.704;6.398;2023-05-31T14:22:05;31.30;99.90
54898;DHT22;40800;52.704;6.398;2023-05-31T14:24:31;31.30;99.90
54898;DHT22;40800;52.704;6.398;2023-05-31T14:26:58;31.70;99.90
54898;DHT22;40800;52.704;6.398;2023-05-31T14:29:24;31.70;99.90
54898;DHT22;40800;52.704;6.398;2023-05-31T14:31:50;32.00;99.90
54898;DHT22;40800;52.704;6.398;2023-05-31T14:34:15;32.20;99.90
54898;DHT22;40800;52.704;6.398;2023-05-31T14:36:41;32.50;99.90
54898;DHT22;40800;52.704;6.398;2023-05-31T14:39:07;32.70;99.90
54898;DHT22;40800;52.704;6.398;2023-05-31T14:41:34;32.80;99.90
54898;DHT22;40800;52.704;6.398;2023-05-31T14:44:01;32.80;99.90
54898;DHT22;40800;52.704;6.398;2023-05-31T14:46:26;32.60;99.90
54898;DHT22;40800;52.704;6.398;2023-05-31T14:48:52;32.70;99.90
54898;DHT22;40800;52.704;6.398;2023-05-31T14:51:19;32.80;99.90
54898;DHT22;40800;52.704;6.398;2023-05-31T14:53:45;32.90;99.90
54898;DHT22;40800;52.704;6.398;2023-05-31T14:56:11;32.80;99.90
54898;DHT22;40800;52.704;6.398;2023-05-31T14:58:36;32.80;99.90
54898;DHT22;40800;52.704;6.398;2023-05-31T15:01:02;33.30;99.90
54898;DHT22;40800;52.704;6.398;2023-05-31T15:03:27;33.30;99.90
54898;DHT22;40800;52.704;6.398;2023-05-31T15:05:53;33.10;99.90
54898;DHT22;40800;52.704;6.398;2023-05-31T15:08:18;33.20;99.90
54898;DHT22;40800;52.704;6.398;2023-05-31T15:10:44;32.90;99.90
54898;DHT22;40800;52.704;6.398;2023-05-31T15:13:10;32.80;99.90
54898;DHT22;40800;52.704;6.398;2023-05-31T15:15:36;32.70;99.90
54898;DHT22;40800;52.704;6.398;2023-05-31T15:18:03;32.80;99.90
54898;DHT22;40800;52.704;6.398;2023-05-31T15:20:29;32.80;99.90
54898;DHT22;40800;52.704;6.398;2023-05-31T15:22:55;33.10;99.90
54898;DHT22;40800;52.704;6.398;2023-05-31T15:25:21;33.00;99.90
54898;DHT22;40800;52.704;6.398;2023-05-31T15:27:47;32.80;99.90
54898;DHT22;40800;52.704;6.398;2023-05-31T15:30:12;32.50;99.90
54898;DHT22;40800;52.704;6.398;2023-05-31T15:32:38;32.50;99.90
54898;DHT22;40800;52.704;6.398;2023-05-31T15:35:04;32.50;99.90
54898;DHT22;40800;52.704;6.398;2023-05-31T15:37:30;32.40;99.90
54898;DHT22;40800;52.704;6.398;2023-05-31T15:39:55;32.30;99.90
54898;DHT22;40800;52.704;6.398;2023-05-31T15:42:21;32.30;99.90
54898;DHT22;40800;52.704;6.398;2023-05-31T15:44:46;32.10;99.90
54898;DHT22;40800;52.704;6.398;2023-05-31T15:47:14;32.00;99.90
54898;DHT22;40800;52.704;6.398;2023-05-31T15:49:40;31.80;99.90
54898;DHT22;40800;52.704;6.398;2023-05-31T15:52:06;31.50;99.90
54898;DHT22;40800;52.704;6.398;2023-05-31T15:54:32;31.30;99.90
54898;DHT22;40800;52.704;6.398;2023-05-31T15:56:57;31.10;99.90
54898;DHT22;40800;52.704;6.398;2023-05-31T15:59:23;30.70;99.90